Time;durP1;ratioP1;P1;durP2;ratioP2;P2;SDS_P1;SDS_P2;PMS_P1;PMS_P2;Temp;Humidity;BMP_temperature;BMP_pressure;BME280_temperature;BME280_humidity;BME280_pressure;Samples;Min_cycle;Max_cycle;Signal;HPM_P1;HPM_P2
2023/08/03 00:00:16;;;;;;;1.10;0.63;;;;;;;;;;5023195;28;20059;-77
2023/08/03 00:02:41;;;;;;;3.42;0.73;;;;;;;;;;5020784;28;20045;-76
2023/08/03 00:05:07;;;;;;;1.73;0.80;;;;;;;;;;5016661;28;20132;-76
2023/08/03 00:07:32;;;;;;;2.63;0.75;;;;;;;;;;4987212;28;20384;-76
2023/08/03 00:09:58;;;;;;;3.35;0.75;;;;;;;;;;5006359;28;20037;-77
2023/08/03 00:12:23;;;;;;;2.00;0.80;;;;;;;;;;5004694;28;20520;-77
2023/08/03 00:14:50;;;;;;;4.68;1.30;;;;;;;;;;5016117;28;20627;-77
2023/08/03 00:17:15;;;;;;;2.78;0.82;;;;;;;;;;5023220;28;20045;-77
2023/08/03 00:19:40;;;;;;;2.75;0.80;;;;;;;;;;5009496;28;20038;-77
2023/08/03 00:22:06;;;;;;;0.93;0.52;;;;;;;;;;5008728;28;20046;-77
2023/08/03 00:24:31;;;;;;;3.05;0.95;;;;;;;;;;5014243;28;20584;-77
2023/08/03 00:26:57;;;;;;;2.70;0.98;;;;;;;;;;5004516;28;20129;-77
2023/08/03 00:29:22;;;;;;;2.05;0.80;;;;;;;;;;5011958;28;20037;-77
2023/08/03 00:31:48;;;;;;;3.83;0.90;;;;;;;;;;5018523;28;20026;-77
2023/08/03 00:34:13;;;;;;;2.92;0.90;;;;;;;;;;5010048;28;20103;-77
2023/08/03 00:36:39;;;;;;;2.83;0.63;;;;;;;;;;5005535;28;20514;-77
2023/08/03 00:39:04;;;;;;;3.15;1.02;;;;;;;;;;5003329;28;20112;-77
2023/08/03 00:41:30;;;;;;;3.30;0.90;;;;;;;;;;5012282;28;20034;-77
2023/08/03 00:43:55;;;;;;;1.67;0.80;;;;;;;;;;5012638;28;20041;-77
2023/08/03 00:46:21;;;;;;;3.30;0.80;;;;;;;;;;5020720;28;20990;-77
2023/08/03 00:48:46;;;;;;;3.03;0.85;;;;;;;;;;5007569;28;20573;-77
2023/08/03 00:51:12;;;;;;;3.60;0.80;;;;;;;;;;5002839;28;20049;-77
2023/08/03 00:53:37;;;;;;;1.83;0.90;;;;;;;;;;4972222;28;20045;-77
2023/08/03 00:56:03;;;;;;;2.92;0.80;;;;;;;;;;5011362;28;20048;-77
2023/08/03 00:58:28;;;;;;;7.15;1.13;;;;;;;;;;5019918;28;20567;-77
2023/08/03 01:00:53;;;;;;;1.00;0.63;;;;;;;;;;5024149;28;20026;-77
2023/08/03 01:03:19;;;;;;;1.75;0.88;;;;;;;;;;4994043;28;20075;-78
2023/08/03 01:05:44;;;;;;;6.47;1.08;;;;;;;;;;5020317;28;20052;-76
2023/08/03 01:08:10;;;;;;;2.92;0.90;;;;;;;;;;5021125;28;20056;-76
2023/08/03 01:10:35;;;;;;;2.25;0.90;;;;;;;;;;5026941;28;20434;-76
2023/08/03 01:13:01;;;;;;;5.55;1.20;;;;;;;;;;5023987;28;20173;-76
2023/08/03 01:15:26;;;;;;;5.70;0.98;;;;;;;;;;5012811;28;20033;-76
2023/08/03 01:17:52;;;;;;;5.38;1.05;;;;;;;;;;5010938;28;20504;-77
2023/08/03 01:20:20;;;;;;;4.20;1.00;;;;;;;;;;5000184;28;20861;-76
2023/08/03 01:22:46;;;;;;;3.90;1.10;;;;;;;;;;5006587;28;20041;-77
2023/08/03 01:25:12;;;;;;;1.95;0.95;;;;;;;;;;5024532;28;20544;-77
2023/08/03 01:27:37;;;;;;;5.30;1.25;;;;;;;;;;5017727;28;20048;-77
2023/08/03 01:30:04;;;;;;;3.05;0.90;;;;;;;;;;5025171;28;20033;-77
2023/08/03 01:32:29;;;;;;;3.13;1.13;;;;;;;;;;4988033;28;20082;-77
2023/08/03 01:34:55;;;;;;;2.80;1.05;;;;;;;;;;5019792;28;20630;-77
2023/08/03 01:37:20;;;;;;;3.97;1.20;;;;;;;;;;5017970;28;20449;-78
2023/08/03 01:39:46;;;;;;;4.57;0.93;;;;;;;;;;5019366;28;20068;-77
2023/08/03 01:42:12;;;;;;;1.70;0.80;;;;;;;;;;5031114;28;20034;-76
2023/08/03 01:44:38;;;;;;;5.00;1.00;;;;;;;;;;5019806;28;20056;-77
2023/08/03 01:47:04;;;;;;;2.72;0.88;;;;;;;;;;5012862;28;20665;-77
2023/08/03 01:49:30;;;;;;;4.13;1.00;;;;;;;;;;5020504;28;20029;-77
2023/08/03 01:51:56;;;;;;;2.92;0.85;;;;;;;;;;5028317;28;20048;-77
2023/08/03 01:54:21;;;;;;;2.05;0.85;;;;;;;;;;5007848;28;20120;-77
2023/08/03 01:56:46;;;;;;;4.35;1.05;;;;;;;;;;5011856;28;20405;-77
2023/08/03 01:59:12;;;;;;;2.45;0.77;;;;;;;;;;5015488;28;20070;-77
2023/08/03 02:01:38;;;;;;;5.07;1.00;;;;;;;;;;5026625;28;20045;-77
2023/08/03 02:04:04;;;;;;;2.85;0.90;;;;;;;;;;4995173;28;20101;-78
2023/08/03 02:06:29;;;;;;;3.15;1.27;;;;;;;;;;5021600;28;20980;-78
2023/08/03 02:08:55;;;;;;;1.95;0.73;;;;;;;;;;5027369;28;20041;-77
2023/08/03 02:11:20;;;;;;;3.53;0.90;;;;;;;;;;5027561;28;20095;-77
2023/08/03 02:13:45;;;;;;;2.25;0.82;;;;;;;;;;5014845;28;20042;-77
2023/08/03 02:16:11;;;;;;;2.95;0.95;;;;;;;;;;5018732;28;20046;-77
2023/08/03 02:18:38;;;;;;;1.92;0.80;;;;;;;;;;5010695;28;20095;-77
2023/08/03 02:21:04;;;;;;;3.08;1.00;;;;;;;;;;5023268;28;20444;-77
2023/08/03 02:23:30;;;;;;;4.72;0.80;;;;;;;;;;5026224;28;20041;-77
2023/08/03 02:25:55;;;;;;;3.38;0.70;;;;;;;;;;4985701;28;20079;-76
2023/08/03 02:28:20;;;;;;;3.95;0.88;;;;;;;;;;5005292;28;20045;-77
2023/08/03 02:30:49;;;;;;;2.67;0.82;;;;;;;;;;4972574;28;20048;-76
2023/08/03 02:33:14;;;;;;;3.10;0.95;;;;;;;;;;5020524;28;20086;-77
2023/08/03 02:35:39;;;;;;;5.95;1.05;;;;;;;;;;5022070;28;20034;-77
2023/08/03 02:38:06;;;;;;;1.67;0.80;;;;;;;;;;5017961;28;20033;-77
2023/08/03 02:40:31;;;;;;;5.13;0.88;;;;;;;;;;5011835;28;20037;-77
2023/08/03 02:42:57;;;;;;;7.60;1.10;;;;;;;;;;5021111;28;20551;-76
2023/08/03 02:45:22;;;;;;;2.30;0.85;;;;;;;;;;5024141;28;20465;-76
2023/08/03 02:47:48;;;;;;;1.25;0.60;;;;;;;;;;5018377;28;20056;-76
2023/08/03 02:50:13;;;;;;;1.85;0.95;;;;;;;;;;5015509;28;20045;-76
2023/08/03 02:52:39;;;;;;;2.83;0.80;;;;;;;;;;5013409;28;20101;-76
2023/08/03 02:55:04;;;;;;;3.60;0.98;;;;;;;;;;4992924;28;20418;-76
2023/08/03 02:57:30;;;;;;;2.17;0.70;;;;;;;;;;5003826;28;20043;-76
2023/08/03 02:59:55;;;;;;;2.72;0.93;;;;;;;;;;5014826;28;20501;-76
2023/08/03 03:02:21;;;;;;;3.33;0.85;;;;;;;;;;5013382;28;20037;-77
2023/08/03 03:04:46;;;;;;;2.22;1.15;;;;;;;;;;5013468;28;20043;-75
2023/08/03 03:07:11;;;;;;;2.47;0.73;;;;;;;;;;5018276;28;20124;-75
2023/08/03 03:09:37;;;;;;;3.63;0.95;;;;;;;;;;4986766;28;20037;-76
2023/08/03 03:12:02;;;;;;;3.45;1.23;;;;;;;;;;5013680;28;20395;-75
2023/08/03 03:14:27;;;;;;;6.30;1.00;;;;;;;;;;5013841;28;20416;-76
2023/08/03 03:16:53;;;;;;;1.40;0.80;;;;;;;;;;5016833;28;20545;-76
2023/08/03 03:19:18;;;;;;;3.38;1.10;;;;;;;;;;5014557;28;20049;-76
2023/08/03 03:21:44;;;;;;;2.22;0.77;;;;;;;;;;5016504;28;20032;-76
2023/08/03 03:24:09;;;;;;;4.22;1.10;;;;;;;;;;5008126;28;20088;-76
2023/08/03 03:26:35;;;;;;;2.20;0.77;;;;;;;;;;5020061;28;20064;-75
2023/08/03 03:29:00;;;;;;;4.30;0.98;;;;;;;;;;5017048;28;20039;-75
2023/08/03 03:31:25;;;;;;;3.47;0.80;;;;;;;;;;5006936;28;20674;-76
2023/08/03 03:33:51;;;;;;;1.38;0.57;;;;;;;;;;5008412;28;20044;-75
2023/08/03 03:36:16;;;;;;;3.75;0.80;;;;;;;;;;5018960;28;20030;-75
2023/08/03 03:38:42;;;;;;;2.00;0.70;;;;;;;;;;5010712;28;20041;-75
2023/08/03 03:41:07;;;;;;;4.28;0.75;;;;;;;;;;5017609;28;20045;-74
2023/08/03 03:43:32;;;;;;;5.30;0.93;;;;;;;;;;5023212;28;20041;-74
2023/08/03 03:45:58;;;;;;;0.98;0.50;;;;;;;;;;5018144;28;20029;-74
2023/08/03 03:48:23;;;;;;;4.30;1.50;;;;;;;;;;5022726;28;20142;-74
2023/08/03 03:50:49;;;;;;;2.55;0.90;;;;;;;;;;5025712;28;20451;-75
2023/08/03 03:53:14;;;;;;;3.78;0.90;;;;;;;;;;5014591;28;20026;-75
2023/08/03 03:55:39;;;;;;;2.00;0.50;;;;;;;;;;5017450;28;20046;-75
2023/08/03 03:58:05;;;;;;;3.45;0.90;;;;;;;;;;5020041;28;20047;-75
2023/08/03 04:00:30;;;;;;;5.30;0.95;;;;;;;;;;5016185;28;20064;-75
2023/08/03 04:02:55;;;;;;;3.10;0.80;;;;;;;;;;5023250;28;20389;-76
2023/08/03 04:05:21;;;;;;;2.45;0.73;;;;;;;;;;5024847;28;20057;-76
2023/08/03 04:07:46;;;;;;;1.52;0.50;;;;;;;;;;4990460;28;20811;-76
2023/08/03 04:10:12;;;;;;;1.80;1.13;;;;;;;;;;5022101;28;20068;-75
2023/08/03 04:12:37;;;;;;;1.80;0.63;;;;;;;;;;5008240;28;20383;-76
2023/08/03 04:15:03;;;;;;;2.38;0.68;;;;;;;;;;5013926;28;20421;-76
2023/08/03 04:17:28;;;;;;;4.88;0.82;;;;;;;;;;5020320;28;20041;-75
2023/08/03 04:19:54;;;;;;;1.88;0.70;;;;;;;;;;5023873;28;20557;-75
2023/08/03 04:22:19;;;;;;;1.92;0.40;;;;;;;;;;5014831;28;20050;-75
2023/08/03 04:24:44;;;;;;;3.63;0.85;;;;;;;;;;5026707;28;20029;-76
2023/08/03 04:27:10;;;;;;;2.75;0.80;;;;;;;;;;5030263;28;20744;-76
2023/08/03 04:29:35;;;;;;;3.17;0.65;;;;;;;;;;5022479;28;20042;-75
2023/08/03 04:32:01;;;;;;;1.92;1.00;;;;;;;;;;5008066;28;20124;-76
2023/08/03 04:34:26;;;;;;;3.20;0.70;;;;;;;;;;5014653;28;20553;-75
2023/08/03 04:36:51;;;;;;;2.20;0.63;;;;;;;;;;5022424;28;20513;-75
2023/08/03 04:39:17;;;;;;;2.22;0.43;;;;;;;;;;5013001;28;20126;-76
2023/08/03 04:41:42;;;;;;;0.75;0.47;;;;;;;;;;5013218;28;20067;-76
2023/08/03 04:44:07;;;;;;;3.05;1.25;;;;;;;;;;5024702;28;20042;-75
2023/08/03 04:46:33;;;;;;;6.15;0.90;;;;;;;;;;5019962;28;20040;-75
2023/08/03 04:48:58;;;;;;;5.07;0.90;;;;;;;;;;5012118;28;20037;-74
2023/08/03 04:51:24;;;;;;;2.28;0.40;;;;;;;;;;4998983;28;20121;-75
2023/08/03 04:53:49;;;;;;;3.10;0.55;;;;;;;;;;5015440;28;20176;-75
2023/08/03 04:56:14;;;;;;;3.47;0.70;;;;;;;;;;5014507;28;20547;-75
2023/08/03 04:58:40;;;;;;;2.05;0.70;;;;;;;;;;5024715;28;20034;-75
2023/08/03 05:01:05;;;;;;;2.35;0.50;;;;;;;;;;5002382;28;20026;-75
2023/08/03 05:03:30;;;;;;;2.28;0.60;;;;;;;;;;5001855;28;20048;-75
2023/08/03 05:05:56;;;;;;;3.92;0.93;;;;;;;;;;5016482;28;20115;-75
2023/08/03 05:08:22;;;;;;;1.65;0.70;;;;;;;;;;5016917;28;20052;-75
2023/08/03 05:10:49;;;;;;;3.30;0.47;;;;;;;;;;5022107;28;20060;-75
2023/08/03 05:13:16;;;;;;;3.67;0.70;;;;;;;;;;5022386;28;20541;-75
2023/08/03 05:15:41;;;;;;;2.03;0.50;;;;;;;;;;5006850;28;20160;-75
2023/08/03 05:18:06;;;;;;;2.88;0.55;;;;;;;;;;5012927;28;20507;-75
2023/08/03 05:20:32;;;;;;;2.80;0.57;;;;;;;;;;5006763;28;20033;-75
2023/08/03 05:22:58;;;;;;;2.63;0.40;;;;;;;;;;5023608;28;20052;-75
2023/08/03 05:25:24;;;;;;;3.10;0.50;;;;;;;;;;5018314;28;20036;-75
2023/08/03 05:27:49;;;;;;;3.10;0.80;;;;;;;;;;5015304;28;20037;-75
2023/08/03 05:30:15;;;;;;;1.40;0.40;;;;;;;;;;5016255;28;20034;-75
2023/08/03 05:32:40;;;;;;;0.80;0.47;;;;;;;;;;4992870;28;20034;-76
2023/08/03 05:35:06;;;;;;;1.40;0.50;;;;;;;;;;5019973;28;20047;-76
2023/08/03 05:37:31;;;;;;;2.20;0.50;;;;;;;;;;5023538;28;20036;-76
2023/08/03 05:39:57;;;;;;;2.53;0.50;;;;;;;;;;5029282;28;20049;-75
2023/08/03 05:42:24;;;;;;;1.02;1.00;;;;;;;;;;5026393;28;20063;-76
2023/08/03 05:44:49;;;;;;;0.30;0.30;;;;;;;;;;5022610;28;20034;-75
2023/08/03 05:47:17;;;;;;;1.70;0.50;;;;;;;;;;5007957;28;20510;-76
2023/08/03 05:49:43;;;;;;;0.95;0.40;;;;;;;;;;5019164;28;20117;-76
2023/08/03 05:52:09;;;;;;;1.63;0.30;;;;;;;;;;5015229;28;20124;-76
2023/08/03 05:54:35;;;;;;;1.88;0.38;;;;;;;;;;5014899;28;20038;-75
2023/08/03 05:57:01;;;;;;;1.05;0.47;;;;;;;;;;5028700;28;20091;-76
2023/08/03 05:59:26;;;;;;;0.77;0.25;;;;;;;;;;5006116;28;20037;-76
2023/08/03 06:01:52;;;;;;;2.50;0.40;;;;;;;;;;5019374;28;20128;-76
2023/08/03 06:04:18;;;;;;;1.27;0.40;;;;;;;;;;4998693;28;20505;-76
2023/08/03 06:06:45;;;;;;;0.57;0.40;;;;;;;;;;4999834;28;20041;-75
2023/08/03 06:09:12;;;;;;;0.63;0.40;;;;;;;;;;5019857;28;20036;-76
2023/08/03 06:11:38;;;;;;;1.48;0.40;;;;;;;;;;5022465;28;20131;-76
2023/08/03 06:14:05;;;;;;;0.63;0.22;;;;;;;;;;5012174;28;20040;-75
2023/08/03 06:16:30;;;;;;;1.25;0.35;;;;;;;;;;5020927;28;20127;-75
2023/08/03 06:18:59;;;;;;;0.20;0.20;;;;;;;;;;5021671;28;20029;-75
2023/08/03 06:21:26;;;;;;;1.00;0.30;;;;;;;;;;5006536;28;20026;-75
2023/08/03 06:23:54;;;;;;;1.05;0.40;;;;;;;;;;5008934;28;20037;-76
2023/08/03 06:26:21;;;;;;;0.60;0.20;;;;;;;;;;5010329;28;20052;-75
2023/08/03 06:28:49;;;;;;;1.25;0.30;;;;;;;;;;4997162;28;20073;-75
2023/08/03 06:31:22;;;;;;;1.48;0.28;;;;;;;;;;5009100;28;20773;-74
2023/08/03 06:33:50;;;;;;;0.95;0.32;;;;;;;;;;5017066;28;20059;-75
2023/08/03 06:36:19;;;;;;;1.45;0.30;;;;;;;;;;4997795;28;20037;-75
2023/08/03 06:38:45;;;;;;;2.80;0.30;;;;;;;;;;5010221;28;20041;-75
2023/08/03 06:41:11;;;;;;;1.35;0.38;;;;;;;;;;4980184;28;20038;-76
2023/08/03 06:43:37;;;;;;;0.28;0.28;;;;;;;;;;5014765;28;20679;-75
2023/08/03 06:46:02;;;;;;;1.15;0.40;;;;;;;;;;5009681;28;20029;-75
2023/08/03 06:48:28;;;;;;;0.30;0.30;;;;;;;;;;5009333;28;20053;-75
2023/08/03 06:50:54;;;;;;;1.20;0.30;;;;;;;;;;5012044;28;20041;-75
2023/08/03 06:53:20;;;;;;;0.88;0.30;;;;;;;;;;5004722;28;20134;-75
2023/08/03 06:55:48;;;;;;;1.00;0.30;;;;;;;;;;5011585;28;20477;-75
2023/08/03 06:58:14;;;;;;;2.25;0.52;;;;;;;;;;5012867;28;20682;-76
2023/08/03 07:00:41;;;;;;;1.35;0.30;;;;;;;;;;4997996;28;20040;-75
2023/08/03 07:03:07;;;;;;;0.50;0.30;;;;;;;;;;5019316;28;20052;-75
2023/08/03 07:05:32;;;;;;;1.08;0.40;;;;;;;;;;4995123;28;20558;-75
2023/08/03 07:07:57;;;;;;;0.28;0.20;;;;;;;;;;4999977;28;20052;-75
2023/08/03 07:10:23;;;;;;;0.57;0.32;;;;;;;;;;5016326;28;20041;-75
2023/08/03 07:12:48;;;;;;;2.15;0.25;;;;;;;;;;5018097;28;20037;-75
2023/08/03 07:15:14;;;;;;;1.40;0.43;;;;;;;;;;5014532;28;20148;-75
2023/08/03 07:17:39;;;;;;;0.68;0.22;;;;;;;;;;5008889;28;20413;-74
2023/08/03 07:20:07;;;;;;;3.50;0.73;;;;;;;;;;5013571;28;20092;-75
2023/08/03 07:22:33;;;;;;;0.65;0.38;;;;;;;;;;5002089;28;20046;-75
2023/08/03 07:24:58;;;;;;;0.20;0.20;;;;;;;;;;4996616;28;20071;-75
2023/08/03 07:27:23;;;;;;;1.63;0.50;;;;;;;;;;4999222;28;20048;-75
2023/08/03 07:29:49;;;;;;;2.72;0.45;;;;;;;;;;4998612;28;20037;-75
2023/08/03 07:32:14;;;;;;;0.45;0.28;;;;;;;;;;5003445;28;20473;-76
2023/08/03 07:34:40;;;;;;;1.38;0.20;;;;;;;;;;5022097;28;20041;-76
2023/08/03 07:37:06;;;;;;;1.05;0.30;;;;;;;;;;5008363;28;20598;-76
2023/08/03 07:39:32;;;;;;;0.32;0.30;;;;;;;;;;5001102;28;20037;-76
2023/08/03 07:41:57;;;;;;;1.35;0.30;;;;;;;;;;5014574;28;20049;-75
2023/08/03 07:44:23;;;;;;;0.60;0.30;;;;;;;;;;5010074;28;20046;-76
2023/08/03 07:46:48;;;;;;;0.28;0.25;;;;;;;;;;5003511;28;20137;-75
2023/08/03 07:49:14;;;;;;;0.98;0.30;;;;;;;;;;5012962;28;20058;-76
2023/08/03 07:51:39;;;;;;;0.73;0.32;;;;;;;;;;4989237;28;20112;-75
2023/08/03 07:54:05;;;;;;;1.77;0.20;;;;;;;;;;5018737;28;20051;-76
2023/08/03 07:56:31;;;;;;;0.43;0.30;;;;;;;;;;5016923;28;20061;-76
2023/08/03 07:58:56;;;;;;;1.27;0.30;;;;;;;;;;5013057;28;20494;-76
2023/08/03 08:01:22;;;;;;;1.23;0.30;;;;;;;;;;5008252;28;20029;-76
2023/08/03 08:03:49;;;;;;;0.45;0.30;;;;;;;;;;5009155;28;20068;-76
2023/08/03 08:06:16;;;;;;;0.30;0.30;;;;;;;;;;5029750;28;20120;-76
2023/08/03 08:08:42;;;;;;;0.60;0.40;;;;;;;;;;5021646;28;20584;-75
2023/08/03 08:11:09;;;;;;;1.92;0.20;;;;;;;;;;5026096;28;20282;-77
2023/08/03 08:13:34;;;;;;;0.30;0.30;;;;;;;;;;5020667;28;20045;-76
2023/08/03 08:16:04;;;;;;;0.15;0.15;;;;;;;;;;5024189;28;20037;-76
2023/08/03 08:18:31;;;;;;;0.30;0.30;;;;;;;;;;5013194;28;20044;-77
2023/08/03 08:21:02;;;;;;;0.75;0.25;;;;;;;;;;5022995;28;20045;-76
2023/08/03 08:23:28;;;;;;;1.45;0.32;;;;;;;;;;5028463;28;20552;-76
2023/08/03 08:25:53;;;;;;;1.25;0.20;;;;;;;;;;5009495;28;20589;-76
2023/08/03 08:28:19;;;;;;;1.30;0.20;;;;;;;;;;5021394;28;20163;-76
2023/08/03 08:30:45;;;;;;;0.60;0.20;;;;;;;;;;5006085;28;20510;-76
2023/08/03 08:33:11;;;;;;;0.60;0.30;;;;;;;;;;5016601;28;20827;-76
2023/08/03 08:35:36;;;;;;;0.93;0.40;;;;;;;;;;5018977;28;20524;-76
2023/08/03 08:38:04;;;;;;;0.50;0.20;;;;;;;;;;5012714;28;20033;-76
2023/08/03 08:40:30;;;;;;;0.55;0.20;;;;;;;;;;5016072;28;20098;-76
2023/08/03 08:42:56;;;;;;;0.52;0.20;;;;;;;;;;4999555;28;20056;-77
2023/08/03 08:45:22;;;;;;;0.22;0.22;;;;;;;;;;4990187;28;20040;-76
2023/08/03 08:47:47;;;;;;;0.85;0.30;;;;;;;;;;5017482;28;20117;-77
2023/08/03 08:50:13;;;;;;;0.20;0.20;;;;;;;;;;5024496;28;20037;-76
2023/08/03 08:52:42;;;;;;;0.45;0.32;;;;;;;;;;5003152;28;20455;-76
2023/08/03 08:55:11;;;;;;;0.68;0.40;;;;;;;;;;5018563;28;20092;-76
2023/08/03 08:57:36;;;;;;;0.20;0.20;;;;;;;;;;4991775;28;20041;-77
2023/08/03 09:00:05;;;;;;;0.47;0.20;;;;;;;;;;4992029;28;20041;-76
2023/08/03 09:02:31;;;;;;;0.98;0.30;;;;;;;;;;5010740;28;20521;-76
2023/08/03 09:04:56;;;;;;;0.80;0.25;;;;;;;;;;5013893;28;20041;-76
2023/08/03 09:07:22;;;;;;;0.20;0.20;;;;;;;;;;5011481;28;21411;-75
2023/08/03 09:09:47;;;;;;;0.20;0.20;;;;;;;;;;5006854;28;20109;-76
2023/08/03 09:12:25;;;;;;;1.50;0.60;;;;;;;;;;4998586;28;20033;-75
2023/08/03 09:14:52;;;;;;;0.50;0.10;;;;;;;;;;4988183;28;20117;-76
2023/08/03 09:17:19;;;;;;;0.85;0.32;;;;;;;;;;5007861;28;20052;-75
2023/08/03 09:19:45;;;;;;;0.90;0.20;;;;;;;;;;5007366;28;20037;-75
2023/08/03 09:22:11;;;;;;;0.20;0.20;;;;;;;;;;4991320;28;20040;-76
2023/08/03 09:24:37;;;;;;;0.25;0.20;;;;;;;;;;4979961;28;20037;-76
2023/08/03 09:27:03;;;;;;;0.20;0.20;;;;;;;;;;5007000;28;20047;-75
2023/08/03 09:29:32;;;;;;;0.30;0.30;;;;;;;;;;5006372;28;20041;-75
2023/08/03 09:32:02;;;;;;;0.60;0.30;;;;;;;;;;5006576;28;20100;-75
2023/08/03 09:34:44;;;;;;;1.20;0.30;;;;;;;;;;5006949;28;20033;-76
2023/08/03 09:37:12;;;;;;;0.75;0.35;;;;;;;;;;4987132;28;20033;-76
2023/08/03 09:39:38;;;;;;;0.30;0.10;;;;;;;;;;5009468;28;20037;-75
2023/08/03 09:42:05;;;;;;;1.35;0.30;;;;;;;;;;5001610;28;20068;-76
2023/08/03 09:44:36;;;;;;;0.95;0.40;;;;;;;;;;5004133;28;20069;-75
2023/08/03 09:47:05;;;;;;;0.40;0.20;;;;;;;;;;5000397;28;20133;-76
2023/08/03 09:49:32;;;;;;;1.55;0.50;;;;;;;;;;4979734;28;20030;-75
2023/08/03 09:52:03;;;;;;;0.25;0.15;;;;;;;;;;4993788;28;21041;-75
2023/08/03 09:54:37;;;;;;;0.43;0.30;;;;;;;;;;4997258;28;20041;-76
2023/08/03 09:57:08;;;;;;;0.50;0.20;;;;;;;;;;5010552;28;20803;-75
2023/08/03 09:59:36;;;;;;;0.68;0.20;;;;;;;;;;5006892;28;20506;-76
2023/08/03 10:02:04;;;;;;;0.90;0.20;;;;;;;;;;4981537;28;20037;-76
2023/08/03 10:04:31;;;;;;;0.30;0.30;;;;;;;;;;5006954;28;20037;-76
2023/08/03 10:07:02;;;;;;;0.35;0.35;;;;;;;;;;5010667;28;20046;-75
2023/08/03 10:09:34;;;;;;;0.70;0.40;;;;;;;;;;4999018;28;20093;-75
2023/08/03 10:12:07;;;;;;;1.65;0.40;;;;;;;;;;4994332;28;20037;-75
2023/08/03 10:14:35;;;;;;;0.70;0.40;;;;;;;;;;4980514;28;20395;-75
2023/08/03 10:17:01;;;;;;;0.28;0.20;;;;;;;;;;5006168;28;20679;-76
2023/08/03 10:19:28;;;;;;;3.08;0.52;;;;;;;;;;5005400;28;20394;-76
2023/08/03 10:21:54;;;;;;;1.58;0.47;;;;;;;;;;5006851;28;20044;-76
2023/08/03 10:24:19;;;;;;;1.83;0.30;;;;;;;;;;4990575;28;20083;-76
2023/08/03 10:26:51;;;;;;;2.05;0.40;;;;;;;;;;4986537;28;20049;-76
2023/08/03 10:29:56;;;;;;;0.35;0.20;;;;;;;;;;5005224;28;20037;-76
2023/08/03 10:32:27;;;;;;;1.02;0.40;;;;;;;;;;5004891;28;20038;-76
2023/08/03 10:34:58;;;;;;;1.13;0.40;;;;;;;;;;4988813;28;20041;-75
2023/08/03 10:37:23;;;;;;;0.43;0.20;;;;;;;;;;4999809;28;20041;-75
2023/08/03 10:39:52;;;;;;;0.57;0.22;;;;;;;;;;5006940;28;20047;-76
2023/08/03 10:42:22;;;;;;;0.50;0.25;;;;;;;;;;5003795;28;20045;-76
2023/08/03 10:44:48;;;;;;;1.40;0.50;;;;;;;;;;5005188;28;20045;-75
2023/08/03 10:47:28;;;;;;;0.60;0.30;;;;;;;;;;5004169;28;20056;-75
2023/08/03 10:49:55;;;;;;;0.33;0.30;;;;;;;;;;4980276;28;20046;-76
2023/08/03 10:52:21;;;;;;;1.10;0.30;;;;;;;;;;5005650;28;20439;-75
2023/08/03 10:54:47;;;;;;;2.30;0.50;;;;;;;;;;5005409;28;20936;-76
2023/08/03 10:57:14;;;;;;;0.60;0.20;;;;;;;;;;4999820;28;20029;-76
2023/08/03 10:59:41;;;;;;;0.22;0.20;;;;;;;;;;4996447;28;20081;-75
2023/08/03 11:02:13;;;;;;;1.40;0.30;;;;;;;;;;4987886;28;20033;-76
2023/08/03 11:04:39;;;;;;;3.60;0.40;;;;;;;;;;4994489;28;20057;-76
2023/08/03 11:07:06;;;;;;;0.90;0.30;;;;;;;;;;4986593;28;20041;-76
2023/08/03 11:09:32;;;;;;;0.70;0.40;;;;;;;;;;4984814;28;20041;-76
2023/08/03 11:11:59;;;;;;;1.20;0.32;;;;;;;;;;4985454;28;20054;-75
2023/08/03 11:14:24;;;;;;;1.60;0.30;;;;;;;;;;4997495;28;20033;-75
2023/08/03 11:16:50;;;;;;;0.28;0.20;;;;;;;;;;4993680;28;20056;-76
2023/08/03 11:19:15;;;;;;;0.25;0.25;;;;;;;;;;4985876;28;20052;-76
2023/08/03 11:21:41;;;;;;;3.88;0.47;;;;;;;;;;4990886;28;20153;-75
2023/08/03 11:24:07;;;;;;;0.30;0.28;;;;;;;;;;4981133;28;20059;-75
2023/08/03 11:26:32;;;;;;;0.60;0.30;;;;;;;;;;5001994;28;20030;-76
2023/08/03 11:28:57;;;;;;;0.60;0.30;;;;;;;;;;4971161;28;20072;-75
2023/08/03 11:31:23;;;;;;;0.40;0.17;;;;;;;;;;4973155;28;20041;-76
2023/08/03 11:33:55;;;;;;;0.43;0.25;;;;;;;;;;4999235;28;20106;-76
2023/08/03 11:36:22;;;;;;;0.63;0.50;;;;;;;;;;5005607;28;20464;-76
2023/08/03 11:38:48;;;;;;;1.77;0.60;;;;;;;;;;4987488;28;21185;-76
2023/08/03 11:41:16;;;;;;;0.22;0.20;;;;;;;;;;5003610;28;20128;-76
2023/08/03 11:43:42;;;;;;;0.32;0.30;;;;;;;;;;4990147;28;20131;-76
2023/08/03 11:46:07;;;;;;;0.60;0.35;;;;;;;;;;5004362;28;20041;-76
2023/08/03 11:48:33;;;;;;;0.40;0.20;;;;;;;;;;4986761;28;20045;-75
2023/08/03 11:50:58;;;;;;;0.55;0.25;;;;;;;;;;5000555;28;20060;-76
2023/08/03 11:53:29;;;;;;;0.65;0.30;;;;;;;;;;4987631;28;20824;-76
2023/08/03 11:55:57;;;;;;;1.02;0.40;;;;;;;;;;5005100;28;20063;-76
2023/08/03 11:58:23;;;;;;;0.35;0.25;;;;;;;;;;4978919;28;20049;-76
2023/08/03 12:00:49;;;;;;;1.80;0.40;;;;;;;;;;5001523;28;20053;-76
2023/08/03 12:03:34;;;;;;;0.40;0.30;;;;;;;;;;4998173;28;20045;-76
2023/08/03 12:06:05;;;;;;;0.35;0.25;;;;;;;;;;4986497;28;20075;-76
2023/08/03 12:08:39;;;;;;;2.40;0.47;;;;;;;;;;5002278;28;20048;-76
2023/08/03 12:11:06;;;;;;;1.33;0.22;;;;;;;;;;4976908;28;20185;-76
2023/08/03 12:13:32;;;;;;;0.57;0.40;;;;;;;;;;5001982;28;20034;-76
2023/08/03 12:15:57;;;;;;;1.17;0.57;;;;;;;;;;5003908;28;20154;-75
2023/08/03 12:18:24;;;;;;;1.15;0.30;;;;;;;;;;4995306;28;20845;-76
2023/08/03 12:20:50;;;;;;;0.50;0.28;;;;;;;;;;4999705;28;20060;-76
2023/08/03 12:23:16;;;;;;;0.50;0.25;;;;;;;;;;4988996;28;20666;-76
2023/08/03 12:25:42;;;;;;;0.20;0.20;;;;;;;;;;4986590;28;20046;-76
2023/08/03 12:28:07;;;;;;;0.52;0.30;;;;;;;;;;4997213;28;21298;-76
2023/08/03 12:30:32;;;;;;;1.00;0.20;;;;;;;;;;5004514;28;20049;-76
2023/08/03 12:32:58;;;;;;;0.85;0.30;;;;;;;;;;5003609;28;20037;-76
2023/08/03 12:35:23;;;;;;;0.93;0.52;;;;;;;;;;5005745;28;20394;-76
2023/08/03 12:37:49;;;;;;;0.30;0.20;;;;;;;;;;4997876;28;20656;-76
2023/08/03 12:40:14;;;;;;;0.75;0.40;;;;;;;;;;5003669;28;20572;-76
2023/08/03 12:42:40;;;;;;;0.43;0.35;;;;;;;;;;4971466;28;20054;-76
2023/08/03 12:45:05;;;;;;;0.45;0.20;;;;;;;;;;5003101;28;20044;-75
2023/08/03 12:47:31;;;;;;;0.95;0.30;;;;;;;;;;5008128;28;20533;-76
2023/08/03 12:49:58;;;;;;;0.45;0.40;;;;;;;;;;5005660;28;20044;-76
2023/08/03 12:52:25;;;;;;;0.55;0.30;;;;;;;;;;4994473;28;20053;-76
2023/08/03 12:54:51;;;;;;;0.73;0.30;;;;;;;;;;4987736;28;20037;-75
2023/08/03 12:57:17;;;;;;;0.95;0.30;;;;;;;;;;4978075;28;20063;-75
2023/08/03 12:59:42;;;;;;;0.65;0.30;;;;;;;;;;5009745;28;20794;-76
2023/08/03 13:02:07;;;;;;;0.85;0.40;;;;;;;;;;5004707;28;20049;-76
2023/08/03 13:04:33;;;;;;;2.28;0.47;;;;;;;;;;5007221;28;20068;-76
2023/08/03 13:06:58;;;;;;;0.65;0.30;;;;;;;;;;4997441;28;20069;-76
2023/08/03 13:09:24;;;;;;;0.30;0.30;;;;;;;;;;4988249;28;20416;-76
2023/08/03 13:11:49;;;;;;;0.60;0.30;;;;;;;;;;5001036;28;20048;-75
2023/08/03 13:14:14;;;;;;;0.28;0.25;;;;;;;;;;4998118;28;20081;-76
2023/08/03 13:16:40;;;;;;;0.30;0.30;;;;;;;;;;4995645;28;20603;-76
2023/08/03 13:19:05;;;;;;;1.02;0.40;;;;;;;;;;5003989;28;20548;-76
2023/08/03 13:21:31;;;;;;;0.52;0.35;;;;;;;;;;4983745;28;20053;-76
2023/08/03 13:23:57;;;;;;;1.10;0.43;;;;;;;;;;4996064;28;20120;-76
2023/08/03 13:26:23;;;;;;;1.50;0.50;;;;;;;;;;5004379;28;20069;-76
2023/08/03 13:28:50;;;;;;;0.52;0.30;;;;;;;;;;4997137;28;20605;-76
2023/08/03 13:31:19;;;;;;;0.75;0.30;;;;;;;;;;5000137;28;20576;-76
2023/08/03 13:33:45;;;;;;;0.70;0.40;;;;;;;;;;4990837;28;20040;-76
2023/08/03 13:36:10;;;;;;;0.40;0.30;;;;;;;;;;5006237;28;20041;-75
2023/08/03 13:38:36;;;;;;;1.48;0.50;;;;;;;;;;4988309;28;20870;-75
2023/08/03 13:41:04;;;;;;;0.77;0.25;;;;;;;;;;4989138;28;20051;-75
2023/08/03 13:43:30;;;;;;;2.92;0.40;;;;;;;;;;4998752;28;20050;-76
2023/08/03 13:45:55;;;;;;;1.08;0.45;;;;;;;;;;4994962;28;20040;-76
2023/08/03 13:48:20;;;;;;;0.50;0.30;;;;;;;;;;4986831;28;20048;-75
2023/08/03 13:50:47;;;;;;;0.43;0.35;;;;;;;;;;4999094;28;20042;-76
2023/08/03 13:53:12;;;;;;;0.20;0.20;;;;;;;;;;4989708;28;20052;-76
2023/08/03 13:55:38;;;;;;;1.92;0.50;;;;;;;;;;5002962;28;20032;-76
2023/08/03 13:58:03;;;;;;;0.60;0.30;;;;;;;;;;4996502;28;20046;-76
2023/08/03 14:00:30;;;;;;;0.35;0.30;;;;;;;;;;4989002;28;20057;-75
2023/08/03 14:02:56;;;;;;;0.85;0.40;;;;;;;;;;4992594;28;20115;-76
2023/08/03 14:05:21;;;;;;;0.43;0.43;;;;;;;;;;5006943;28;20045;-76
2023/08/03 14:07:47;;;;;;;0.77;0.40;;;;;;;;;;5004193;28;20029;-76
2023/08/03 14:10:12;;;;;;;0.68;0.40;;;;;;;;;;5002030;28;20391;-76
2023/08/03 14:12:37;;;;;;;1.10;0.35;;;;;;;;;;5002441;28;20421;-76
2023/08/03 14:15:04;;;;;;;0.30;0.30;;;;;;;;;;4993135;28;20063;-76
2023/08/03 14:17:29;;;;;;;0.52;0.32;;;;;;;;;;4985232;28;21375;-76
2023/08/03 14:19:55;;;;;;;1.10;0.30;;;;;;;;;;4982668;28;20049;-76
2023/08/03 14:22:21;;;;;;;2.03;0.38;;;;;;;;;;5006273;28;20068;-76
2023/08/03 14:24:46;;;;;;;0.40;0.20;;;;;;;;;;5006523;28;20045;-77
2023/08/03 14:27:11;;;;;;;0.60;0.30;;;;;;;;;;5005681;28;20045;-76
2023/08/03 14:29:38;;;;;;;0.30;0.30;;;;;;;;;;4985445;28;20103;-76
2023/08/03 14:32:04;;;;;;;0.63;0.30;;;;;;;;;;4991557;28;20660;-76
2023/08/03 14:34:30;;;;;;;0.50;0.30;;;;;;;;;;4994589;28;20134;-76
2023/08/03 14:36:55;;;;;;;1.08;0.20;;;;;;;;;;4997954;28;20041;-76